createdAt,value
2019-04-19T00:00:24.477Z,4.00
2019-04-19T00:01:24.710Z,4.00
2019-04-19T00:02:30.728Z,4.00
2019-04-19T00:03:30.371Z,4.00
2019-04-19T00:04:25.932Z,4.00
2019-04-19T00:05:29.870Z,4.00
2019-04-19T00:06:29.447Z,4.00
2019-04-19T00:07:27.093Z,4.00
2019-04-19T00:08:37.225Z,4.00
2019-04-19T00:09:34.705Z,4.00
2019-04-19T00:10:33.453Z,4.00
2019-04-19T00:11:33.397Z,4.00
2019-04-19T00:12:35.238Z,4.00
2019-04-19T00:13:24.348Z,4.00
2019-04-19T00:14:25.493Z,4.00
2019-04-19T00:15:24.502Z,4.00
2019-04-19T00:16:25.647Z,4.00
2019-04-19T00:17:28.015Z,4.00
2019-04-19T00:18:24.644Z,4.00
2019-04-19T00:19:55.577Z,4.00
2019-04-19T00:20:46.974Z,4.00
2019-04-19T00:21:42.717Z,4.00
2019-04-19T00:22:39.709Z,4.00
2019-04-19T00:23:33.123Z,4.00
2019-04-19T00:24:24.875Z,4.00
2019-04-19T00:25:25.820Z,4.00
2019-04-19T00:26:25.806Z,4.00
2019-04-19T00:27:31.895Z,4.00
2019-04-19T00:28:35.462Z,4.00
2019-04-19T00:29:36.879Z,4.00
2019-04-19T00:30:40.064Z,4.00
2019-04-19T00:31:33.910Z,4.00
2019-04-19T00:32:38.031Z,4.00
2019-04-19T00:33:33.935Z,4.00
2019-04-19T00:34:25.330Z,4.00
2019-04-19T00:35:24.720Z,4.00
2019-04-19T00:36:25.531Z,4.00
2019-04-19T00:37:24.807Z,4.00
2019-04-19T00:38:39.404Z,4.00
2019-04-19T00:39:43.494Z,4.00
2019-04-19T00:40:38.129Z,4.00
2019-04-19T00:41:37.038Z,4.00
2019-04-19T00:42:42.646Z,4.00
2019-04-19T00:43:43.229Z,4.00
2019-04-19T00:44:45.487Z,4.00
2019-04-19T00:45:38.504Z,4.00
2019-04-19T00:46:38.514Z,4.00
2019-04-19T00:47:38.068Z,4.00
2019-04-19T00:48:41.280Z,4.00
2019-04-19T00:49:33.913Z,4.00
2019-04-19T00:50:38.085Z,4.00
2019-04-19T00:51:43.071Z,4.00
2019-04-19T00:52:44.131Z,4.00
2019-04-19T00:53:34.832Z,4.00
2019-04-19T00:54:34.371Z,4.00
2019-04-19T00:55:35.050Z,4.00
2019-04-19T00:56:38.167Z,4.00
2019-04-19T00:57:33.582Z,4.00
2019-04-19T00:58:29.723Z,4.00
2019-04-19T00:59:29.320Z,4.00
2019-04-19T01:00:30.570Z,4.00
2019-04-19T01:01:28.898Z,4.00
2019-04-19T01:02:26.395Z,4.00
2019-04-19T01:03:30.607Z,4.00
2019-04-19T01:04:28.664Z,4.00
2019-04-19T01:05:27.412Z,4.00
2019-04-19T01:06:32.564Z,4.00
2019-04-19T01:07:30.931Z,4.00
2019-04-19T01:08:26.419Z,4.00
2019-04-19T01:09:38.770Z,4.00
2019-04-19T01:10:38.232Z,4.00
2019-04-19T01:11:35.956Z,4.00
2019-04-19T01:12:41.515Z,4.00
2019-04-19T01:13:41.628Z,4.00
2019-04-19T01:14:36.566Z,4.00
2019-04-19T01:15:33.606Z,4.00
2019-04-19T01:16:42.789Z,4.00
2019-04-19T01:17:44.691Z,4.00
2019-04-19T01:18:36.910Z,4.00
2019-04-19T01:19:25.809Z,4.00
2019-04-19T01:20:25.344Z,4.00
2019-04-19T01:21:25.992Z,4.00
2019-04-19T01:22:29.154Z,4.00
2019-04-19T01:23:25.362Z,4.00
2019-04-19T01:24:30.822Z,4.00
2019-04-19T01:25:27.793Z,4.00
2019-04-19T01:26:25.688Z,4.00
2019-04-19T01:27:28.219Z,4.00
2019-04-19T01:28:27.817Z,4.00
2019-04-19T01:29:26.220Z,4.00
2019-04-19T01:30:31.837Z,4.00
2019-04-19T01:31:27.724Z,4.00
2019-04-19T01:32:26.205Z,4.00
2019-04-19T01:33:31.317Z,4.00
2019-04-19T01:34:29.260Z,4.00
2019-04-19T01:36:32.350Z,4.00
2019-04-19T01:37:28.269Z,4.00
2019-04-19T01:38:25.589Z,4.00
2019-04-19T01:39:39.988Z,4.00
2019-04-19T01:40:48.329Z,4.00
2019-04-19T01:41:43.751Z,4.00
2019-04-19T01:42:47.813Z,4.00
2019-04-19T01:43:43.933Z,4.00
2019-04-19T01:44:42.296Z,4.00
2019-04-19T01:45:44.689Z,4.00
2019-04-19T01:46:43.629Z,4.00
2019-04-19T01:47:41.978Z,4.00
2019-04-19T01:48:45.505Z,4.00
2019-04-19T01:49:42.938Z,4.00
2019-04-19T01:50:48.915Z,4.00
2019-04-19T01:51:42.215Z,4.00
2019-04-19T01:53:42.157Z,4.00
2019-04-19T01:54:42.238Z,4.00
2019-04-19T01:55:32.978Z,4.00
2019-04-19T01:56:26.358Z,4.00
2019-04-19T01:57:26.570Z,4.00
2019-04-19T01:58:25.876Z,4.00
2019-04-19T01:59:33.188Z,4.00
2019-04-19T02:00:34.732Z,4.00
2019-04-19T02:01:28.476Z,4.00
2019-04-19T02:02:27.769Z,4.00
2019-04-19T02:03:34.957Z,4.00
2019-04-19T02:04:29.663Z,4.00
2019-04-19T02:05:25.984Z,4.00
2019-04-19T02:06:33.275Z,4.00
2019-04-19T02:07:30.278Z,4.00
2019-04-19T02:08:27.045Z,4.00
2019-04-19T02:09:37.649Z,4.00
2019-04-19T02:10:41.946Z,4.00
2019-04-19T02:11:36.005Z,4.00
2019-04-19T02:12:39.402Z,4.00
2019-04-19T02:13:31.663Z,4.00
2019-04-19T02:14:37.631Z,4.00
2019-04-19T02:15:33.731Z,4.00
2019-04-19T02:16:27.885Z,4.00
2019-04-19T02:17:27.620Z,4.00
2019-04-19T02:18:29.457Z,4.00
2019-04-19T02:19:29.477Z,4.00
2019-04-19T02:20:33.650Z,4.00
2019-04-19T02:21:31.062Z,4.00
2019-04-19T02:22:30.743Z,4.00
2019-04-19T02:23:26.237Z,4.00
2019-04-19T02:24:30.508Z,4.00
2019-04-19T02:25:29.349Z,4.00
2019-04-19T02:26:26.770Z,4.00
2019-04-19T02:27:32.745Z,4.00
2019-04-19T02:28:30.897Z,4.00
2019-04-19T02:29:29.716Z,4.00
2019-04-19T02:30:34.195Z,4.00
2019-04-19T02:31:43.564Z,4.00
2019-04-19T02:32:43.269Z,4.00
2019-04-19T02:34:00.643Z,4.00
2019-04-19T02:34:49.275Z,4.00
2019-04-19T02:35:51.149Z,4.00
2019-04-19T02:37:01.050Z,4.00
2019-04-19T02:37:51.418Z,4.00
2019-04-19T02:38:57.962Z,4.00
2019-04-19T02:42:50.993Z,4.00
2019-04-19T02:45:01.499Z,4.00
2019-04-19T02:46:14.503Z,4.00
2019-04-19T02:47:00.183Z,4.00
2019-04-19T02:48:10.873Z,4.00
2019-04-19T02:51:55.428Z,4.00
2019-04-19T02:53:56.071Z,4.00
2019-04-19T02:56:03.790Z,4.00
2019-04-19T02:58:48.316Z,4.00
2019-04-19T03:00:00.506Z,4.00
2019-04-19T03:02:07.462Z,4.00
2019-04-19T03:02:52.663Z,4.00
2019-04-19T03:04:00.121Z,4.00
2019-04-19T03:05:50.498Z,4.00
2019-04-19T03:06:36.770Z,4.00
2019-04-19T03:07:28.122Z,4.00
2019-04-19T03:08:27.197Z,4.00
2019-04-19T03:09:30.763Z,4.00
2019-04-19T03:10:29.492Z,4.00
2019-04-19T03:11:43.688Z,4.00
2019-04-19T03:12:48.733Z,4.00
2019-04-19T03:13:40.269Z,4.00
2019-04-19T03:14:49.111Z,4.00
2019-04-19T03:16:46.701Z,4.00
2019-04-19T03:17:46.184Z,4.00
2019-04-19T03:18:42.558Z,4.00
2019-04-19T03:19:44.199Z,4.00
2019-04-19T03:20:38.977Z,4.00
2019-04-19T03:21:41.809Z,4.00
2019-04-19T03:22:42.267Z,4.00
2019-04-19T03:23:38.939Z,4.00
2019-04-19T03:24:47.880Z,4.00
2019-04-19T03:25:40.264Z,4.00
2019-04-19T03:26:43.809Z,4.00
2019-04-19T03:27:40.887Z,4.00
2019-04-19T03:28:35.483Z,4.00
2019-04-19T03:29:34.919Z,4.00
2019-04-19T03:30:53.552Z,4.00
2019-04-19T03:31:58.883Z,4.00
2019-04-19T03:33:11.409Z,4.00
2019-04-19T03:34:57.326Z,4.00
2019-04-19T03:35:49.893Z,4.00
2019-04-19T03:36:44.558Z,4.00
2019-04-19T03:37:45.342Z,4.00
2019-04-19T03:38:44.168Z,4.00
2019-04-19T03:39:58.696Z,4.00
2019-04-19T03:40:49.168Z,4.00
2019-04-19T03:41:56.152Z,4.00
2019-04-19T03:42:44.885Z,4.00
2019-04-19T03:43:47.874Z,4.00
2019-04-19T03:44:40.235Z,4.00
2019-04-19T03:45:50.003Z,4.00
2019-04-19T03:46:52.406Z,4.00
2019-04-19T03:47:53.057Z,4.00
2019-04-19T03:48:43.638Z,4.00
2019-04-19T03:49:48.699Z,4.00
2019-04-19T03:50:50.532Z,4.00
2019-04-19T03:52:01.618Z,4.00
2019-04-19T03:52:46.939Z,4.00
2019-04-19T03:53:50.253Z,0.00
2019-04-19T03:54:45.397Z,0.00
2019-04-19T03:55:59.495Z,4.00
2019-04-19T03:56:47.742Z,4.00
2019-04-19T03:57:41.399Z,4.00
2019-04-19T03:58:29.265Z,4.00
2019-04-19T03:59:29.011Z,4.00
2019-04-19T04:00:28.103Z,4.00
2019-04-19T04:01:34.866Z,8.00
2019-04-19T04:02:31.660Z,4.00
2019-04-19T04:03:33.996Z,8.00
2019-04-19T04:04:30.836Z,8.00
2019-04-19T04:05:31.313Z,8.00
2019-04-19T04:06:33.754Z,8.00
2019-04-19T04:07:30.316Z,8.00
2019-04-19T04:08:30.691Z,8.00
2019-04-19T04:09:35.362Z,12.00
2019-04-19T04:10:32.595Z,12.00
2019-04-19T04:11:29.862Z,12.00
2019-04-19T04:12:37.930Z,16.00
2019-04-19T04:13:38.445Z,20.00
2019-04-19T04:14:45.600Z,20.00
2019-04-19T04:15:41.775Z,24.00
2019-04-19T04:16:35.668Z,28.00
2019-04-19T04:17:28.935Z,32.00
2019-04-19T04:18:28.240Z,36.00
2019-04-19T04:19:29.277Z,36.00
2019-04-19T04:20:28.479Z,44.00
2019-04-19T04:21:35.522Z,48.00
2019-04-19T04:22:33.507Z,56.00
2019-04-19T04:23:36.444Z,60.00
2019-04-19T04:24:34.527Z,68.00
2019-04-19T04:25:33.065Z,72.00
2019-04-19T04:26:38.695Z,80.00
2019-04-19T04:27:41.575Z,84.00
2019-04-19T04:28:42.628Z,96.00
2019-04-19T04:29:37.330Z,104.00
2019-04-19T04:30:36.111Z,112.00
2019-04-19T04:31:41.197Z,120.00
2019-04-19T04:32:43.097Z,132.00
2019-04-19T04:33:40.993Z,140.00
2019-04-19T04:34:40.796Z,148.00
2019-04-19T04:35:44.103Z,160.00
2019-04-19T04:36:46.908Z,172.00
2019-04-19T04:37:42.219Z,184.00
2019-04-19T04:38:34.518Z,192.00
2019-04-19T04:39:28.338Z,208.00
2019-04-19T04:40:29.580Z,216.00
2019-04-19T04:41:31.102Z,228.00
2019-04-19T04:42:34.882Z,240.00
2019-04-19T04:43:39.108Z,256.00
2019-04-19T04:44:55.238Z,268.00
2019-04-19T04:45:57.621Z,280.00
2019-04-19T04:46:52.933Z,292.00
2019-04-19T04:47:43.176Z,308.00
2019-04-19T04:48:49.355Z,316.00
2019-04-19T04:49:53.517Z,332.00
2019-04-19T04:50:54.872Z,348.00
2019-04-19T04:51:44.527Z,364.00
2019-04-19T04:52:32.593Z,376.00
2019-04-19T04:53:28.373Z,392.00
2019-04-19T04:54:29.311Z,404.00
2019-04-19T04:55:28.487Z,420.00
2019-04-19T04:56:34.861Z,436.00
2019-04-19T04:57:39.971Z,452.00
2019-04-19T04:58:33.832Z,468.00
2019-04-19T04:59:30.036Z,480.00
2019-04-19T05:00:38.076Z,500.00
2019-04-19T05:01:39.134Z,516.00
2019-04-19T05:02:45.116Z,532.00
2019-04-19T05:03:43.352Z,544.00
2019-04-19T05:04:40.519Z,564.00
2019-04-19T05:05:46.039Z,580.00
2019-04-19T05:06:49.865Z,596.00
2019-04-19T05:07:52.773Z,612.00
2019-04-19T05:08:44.912Z,624.00
2019-04-19T05:09:49.807Z,644.00
2019-04-19T05:10:43.622Z,656.00
2019-04-19T05:11:46.619Z,676.00
2019-04-19T05:13:07.845Z,692.00
2019-04-19T05:13:50.061Z,708.00
2019-04-19T05:14:40.325Z,724.00
2019-04-19T05:15:48.199Z,736.00
2019-04-19T05:16:51.390Z,756.00
2019-04-19T05:17:53.609Z,772.00
2019-04-19T05:18:45.594Z,784.00
2019-04-19T05:19:51.427Z,800.00
2019-04-19T05:20:46.456Z,816.00
2019-04-19T05:22:48.991Z,848.00
2019-04-19T05:23:55.517Z,868.00
2019-04-19T05:25:02.201Z,884.00
2019-04-19T05:25:50.983Z,900.00
2019-04-19T05:26:53.674Z,920.00
2019-04-19T05:27:52.716Z,936.00
2019-04-19T05:28:46.431Z,948.00
2019-04-19T05:29:36.243Z,968.00
2019-04-19T05:30:40.256Z,988.00
2019-04-19T05:31:37.846Z,1000.00
2019-04-19T05:32:33.242Z,1020.00
2019-04-19T05:33:45.277Z,1036.00
2019-04-19T05:34:46.573Z,1052.00
2019-04-19T05:35:49.398Z,1072.00
2019-04-19T05:36:46.933Z,1092.00
2019-04-19T05:37:50.323Z,1112.00
2019-04-19T05:38:53.962Z,1128.00
2019-04-19T05:39:51.403Z,1148.00
2019-04-19T05:40:44.067Z,1168.00
2019-04-19T05:41:46.660Z,1188.00
2019-04-19T05:42:47.082Z,1208.00
2019-04-19T05:45:03.266Z,1244.00
2019-04-19T05:46:11.752Z,1260.00
2019-04-19T05:46:49.204Z,1284.00
2019-04-19T05:47:42.015Z,1296.00
2019-04-19T05:48:40.240Z,1316.00
2019-04-19T05:49:45.763Z,1336.00
2019-04-19T05:50:44.240Z,1352.00
2019-04-19T05:51:47.826Z,1376.00
2019-04-19T05:52:48.235Z,1396.00
2019-04-19T05:53:37.362Z,1412.00
2019-04-19T05:54:30.042Z,1432.00
2019-04-19T05:55:30.329Z,1452.00
2019-04-19T05:56:29.272Z,1568.00
2019-04-19T05:57:45.557Z,1768.00
2019-04-19T05:58:44.821Z,2432.00
2019-04-19T05:59:42.556Z,2880.00
2019-04-19T06:00:48.628Z,2796.00
2019-04-19T06:01:48.121Z,2372.00
2019-04-19T06:02:37.995Z,2048.00
2019-04-19T06:03:48.152Z,1924.00
2019-04-19T06:05:58.181Z,1744.00
2019-04-19T06:06:52.741Z,1892.00
2019-04-19T06:07:44.603Z,2544.00
2019-04-19T06:08:34.276Z,1936.00
2019-04-19T06:09:30.664Z,1760.00
2019-04-19T06:10:35.401Z,1772.00
2019-04-19T06:11:33.342Z,1696.00
2019-04-19T06:12:33.593Z,1708.00
2019-04-19T06:13:29.740Z,1720.00
2019-04-19T06:14:52.347Z,1732.00
2019-04-19T06:15:55.919Z,1748.00
2019-04-19T06:16:43.987Z,1760.00
2019-04-19T06:17:48.697Z,1768.00
2019-04-19T06:18:43.981Z,1788.00
2019-04-19T06:19:44.579Z,1800.00
2019-04-19T06:20:44.888Z,1808.00
2019-04-19T06:21:46.038Z,1828.00
2019-04-19T06:22:56.678Z,1856.00
2019-04-19T06:23:53.938Z,1896.00
2019-04-19T06:24:48.389Z,1956.00
2019-04-19T06:26:04.807Z,2060.00
2019-04-19T06:28:09.226Z,2012.00
2019-04-19T06:29:00.146Z,1956.00
2019-04-19T06:29:55.069Z,1952.00
2019-04-19T06:30:50.757Z,1964.00
2019-04-19T06:31:51.522Z,1968.00
2019-04-19T06:32:52.046Z,1980.00
2019-04-19T06:33:48.470Z,1992.00
2019-04-19T06:34:46.832Z,2000.00
2019-04-19T06:35:40.590Z,2016.00
2019-04-19T06:36:31.213Z,2032.00
2019-04-19T06:37:32.818Z,2048.00
2019-04-19T06:38:30.904Z,2060.00
2019-04-19T06:39:30.936Z,2080.00
2019-04-19T06:40:32.774Z,2092.00
2019-04-19T06:41:39.196Z,2104.00
2019-04-19T06:42:38.983Z,2120.00
2019-04-19T06:43:43.432Z,2128.00
2019-04-19T06:44:50.654Z,2148.00
2019-04-19T06:45:45.289Z,2164.00
2019-04-19T06:46:45.142Z,2176.00
2019-04-19T06:47:36.597Z,2192.00
2019-04-19T06:48:33.317Z,2204.00
2019-04-19T06:49:32.624Z,2212.00
2019-04-19T06:50:37.704Z,2224.00
2019-04-19T06:51:37.892Z,2240.00
2019-04-19T06:52:32.851Z,2248.00
2019-04-19T06:53:39.658Z,2260.00
2019-04-19T06:54:36.544Z,2280.00
2019-04-19T06:55:36.065Z,2288.00
2019-04-19T06:56:35.603Z,2300.00
2019-04-19T06:57:35.742Z,2312.00
2019-04-19T06:58:40.315Z,2328.00
2019-04-19T06:59:47.804Z,2348.00
2019-04-19T07:00:41.483Z,2360.00
2019-04-19T07:01:40.240Z,2368.00
2019-04-19T07:02:30.560Z,2388.00
2019-04-19T07:03:30.231Z,2392.00
2019-04-19T07:04:31.890Z,2396.00
2019-04-19T07:05:43.129Z,2416.00
2019-04-19T07:06:44.037Z,2420.00
2019-04-19T07:07:59.537Z,2416.00
2019-04-19T07:09:03.754Z,2428.00
2019-04-19T07:09:56.671Z,2432.00
2019-04-19T07:10:56.284Z,2448.00
2019-04-19T07:11:49.982Z,2468.00
2019-04-19T07:12:51.411Z,2476.00
2019-04-19T07:14:33.633Z,2508.00
2019-04-19T07:15:58.120Z,2520.00
2019-04-19T07:16:50.148Z,2536.00
2019-04-19T07:17:47.164Z,2548.00
2019-04-19T07:18:40.123Z,2556.00
2019-04-19T07:19:49.830Z,2604.00
2019-04-19T07:20:54.694Z,2616.00
2019-04-19T07:21:48.196Z,2624.00
2019-04-19T07:22:50.828Z,2648.00
2019-04-19T07:23:49.843Z,2656.00
2019-04-19T07:24:49.704Z,2672.00
2019-04-19T07:25:55.466Z,2672.00
2019-04-19T07:26:47.055Z,2684.00
2019-04-19T07:27:44.272Z,2696.00
2019-04-19T07:28:34.045Z,2704.00
2019-04-19T07:29:31.603Z,2712.00
2019-04-19T07:30:32.863Z,2724.00
2019-04-19T07:31:33.732Z,2728.00
2019-04-19T07:32:37.232Z,2740.00
2019-04-19T07:33:42.832Z,2748.00
2019-04-19T07:34:45.201Z,2764.00
2019-04-19T07:35:55.623Z,2776.00
2019-04-19T07:36:49.630Z,2796.00
2019-04-19T07:37:46.440Z,2804.00
2019-04-19T07:38:53.414Z,2828.00
2019-04-19T07:39:58.505Z,2840.00
2019-04-19T07:40:48.949Z,2860.00
2019-04-19T07:41:50.539Z,2868.00
2019-04-19T07:42:51.269Z,2876.00
2019-04-19T07:43:46.043Z,2892.00
2019-04-19T07:44:41.087Z,2904.00
2019-04-19T07:45:54.072Z,2908.00
2019-04-19T07:46:53.159Z,2912.00
2019-04-19T07:47:42.786Z,2936.00
2019-04-19T07:48:32.221Z,2944.00
2019-04-19T07:49:40.371Z,2956.00
2019-04-19T07:50:43.451Z,2964.00
2019-04-19T07:51:37.101Z,2980.00
2019-04-19T07:52:42.507Z,2984.00
2019-04-19T07:53:38.649Z,2996.00
2019-04-19T07:55:38.453Z,3020.00
2019-04-19T07:56:44.637Z,3028.00
2019-04-19T07:58:55.550Z,3032.00
2019-04-19T07:59:55.446Z,3040.00
2019-04-19T08:01:11.983Z,3060.00
2019-04-19T08:05:57.051Z,3048.00
2019-04-19T08:07:01.913Z,3084.00
2019-04-19T08:08:06.835Z,3100.00
2019-04-19T08:08:57.092Z,3100.00
2019-04-19T08:11:02.031Z,3128.00
2019-04-19T08:12:04.850Z,3120.00
2019-04-19T08:14:01.175Z,3144.00
2019-04-19T08:15:01.692Z,3144.00
2019-04-19T08:17:56.819Z,3136.00
2019-04-19T08:27:39.821Z,3188.00
2019-04-19T08:28:41.114Z,3196.00
2019-04-19T08:29:40.717Z,3200.00
2019-04-19T08:30:38.054Z,3204.00
2019-04-19T08:31:31.936Z,3216.00
2019-04-19T08:33:31.877Z,3220.00
2019-04-19T08:34:32.607Z,3236.00
2019-04-19T08:35:39.121Z,3232.00
2019-04-19T08:36:39.980Z,3240.00
2019-04-19T08:37:36.429Z,3252.00
2019-04-19T08:38:32.902Z,3248.00
2019-04-19T08:39:46.011Z,3268.00
2019-04-19T08:40:50.572Z,3276.00
2019-04-19T08:42:01.103Z,3276.00
2019-04-19T08:42:52.504Z,3272.00
2019-04-19T08:43:51.194Z,3264.00
2019-04-19T08:44:43.059Z,3296.00
2019-04-19T08:45:32.915Z,3300.00
2019-04-19T08:46:32.627Z,3292.00
2019-04-19T08:47:37.600Z,3324.00
2019-04-19T08:48:41.307Z,3324.00
2019-04-19T08:49:37.168Z,3316.00
2019-04-19T08:50:36.182Z,3336.00
2019-04-19T08:51:35.341Z,3340.00
2019-04-19T08:52:35.469Z,3352.00
2019-04-19T08:53:46.396Z,3364.00
2019-04-19T08:54:54.753Z,3364.00
2019-04-19T08:55:49.189Z,3380.00
2019-04-19T08:56:41.906Z,3372.00
2019-04-19T08:57:33.987Z,3368.00
2019-04-19T08:58:50.076Z,3360.00
2019-04-19T08:59:53.921Z,3388.00
2019-04-19T09:00:58.177Z,3392.00
2019-04-19T09:01:50.838Z,3396.00
2019-04-19T09:02:45.323Z,3404.00
2019-04-19T09:03:46.203Z,3404.00
2019-04-19T09:04:49.543Z,3404.00
2019-04-19T09:05:54.660Z,3416.00
2019-04-19T09:07:55.008Z,3428.00
2019-04-19T09:08:47.515Z,3432.00
2019-04-19T09:10:01.646Z,3428.00
2019-04-19T09:10:52.116Z,3456.00
2019-04-19T09:11:56.171Z,3456.00
2019-04-19T09:13:05.199Z,3468.00
2019-04-19T09:13:49.568Z,3468.00
2019-04-19T09:14:53.709Z,3496.00
2019-04-19T09:15:45.973Z,3512.00
2019-04-19T09:16:57.539Z,3524.00
2019-04-19T09:18:19.710Z,3504.00
2019-04-19T09:18:56.023Z,3484.00
2019-04-19T09:20:08.510Z,3512.00
2019-04-19T09:20:50.437Z,3520.00
2019-04-19T09:21:45.263Z,3544.00
2019-04-19T09:22:45.172Z,3544.00
2019-04-19T09:23:43.911Z,3536.00
2019-04-19T09:24:44.074Z,3576.00
2019-04-19T09:25:43.521Z,3580.00
2019-04-19T09:26:49.692Z,3500.00
2019-04-19T09:27:55.947Z,3556.00
2019-04-19T09:28:51.276Z,3564.00
2019-04-19T09:29:56.262Z,3568.00
2019-04-19T09:30:49.064Z,3580.00
2019-04-19T09:31:45.245Z,3584.00
2019-04-19T09:32:35.916Z,3584.00
2019-04-19T09:33:36.393Z,3592.00
2019-04-19T09:34:33.347Z,3600.00
2019-04-19T09:35:41.011Z,3628.00
2019-04-19T09:36:40.766Z,3640.00
2019-04-19T09:37:46.440Z,3616.00
2019-04-19T09:38:50.230Z,3624.00
2019-04-19T09:39:44.636Z,3644.00
2019-04-19T09:40:41.380Z,3624.00
2019-04-19T09:41:40.676Z,3656.00
2019-04-19T09:42:42.284Z,3644.00
2019-04-19T09:43:48.249Z,3656.00
2019-04-19T09:44:39.991Z,3652.00
2019-04-19T09:45:33.962Z,3640.00
2019-04-19T09:46:33.777Z,3688.00
2019-04-19T09:47:33.185Z,3676.00
2019-04-19T09:48:52.962Z,3676.00
2019-04-19T09:49:47.885Z,3676.00
2019-04-19T09:50:53.940Z,3708.00
2019-04-19T09:51:46.839Z,3696.00
2019-04-19T09:52:57.118Z,3684.00
2019-04-19T09:53:51.941Z,3692.00
2019-04-19T09:54:58.892Z,3696.00
2019-04-19T09:55:55.488Z,3660.00
2019-04-19T09:56:52.391Z,3720.00
2019-04-19T09:57:54.228Z,3696.00
2019-04-19T09:58:46.646Z,3716.00
2019-04-19T09:59:37.148Z,3732.00
2019-04-19T10:00:33.955Z,3700.00
2019-04-19T10:01:41.651Z,3692.00
2019-04-19T10:02:39.402Z,3680.00
2019-04-19T10:03:40.086Z,3680.00
2019-04-19T10:04:33.694Z,3688.00
2019-04-19T10:05:32.959Z,3696.00
2019-04-19T10:06:33.085Z,3708.00
2019-04-19T10:07:32.983Z,3704.00
2019-04-19T10:08:33.761Z,3692.00
2019-04-19T10:09:33.136Z,3692.00
2019-04-19T10:10:33.379Z,3700.00
2019-04-19T10:11:33.045Z,3720.00
2019-04-19T10:12:33.615Z,3692.00
2019-04-19T10:13:34.171Z,3628.00
2019-04-19T10:14:33.433Z,3684.00
2019-04-19T10:15:34.184Z,3676.00
2019-04-19T10:16:33.119Z,3704.00
2019-04-19T10:17:34.244Z,3696.00
2019-04-19T10:18:44.357Z,3716.00
2019-04-19T10:19:33.170Z,3708.00
2019-04-19T10:20:33.180Z,3704.00
2019-04-19T10:21:35.873Z,3716.00
2019-04-19T10:22:33.212Z,3700.00
2019-04-19T10:23:33.700Z,3696.00
2019-04-19T10:24:33.489Z,3676.00
2019-04-19T10:25:33.326Z,3688.00
2019-04-19T10:26:34.229Z,3724.00
2019-04-19T10:27:33.504Z,3728.00
2019-04-19T10:28:34.382Z,3724.00
2019-04-19T10:29:38.180Z,3704.00
2019-04-19T10:30:34.386Z,3684.00
2019-04-19T10:31:33.705Z,3680.00
2019-04-19T10:32:34.865Z,3680.00
2019-04-19T10:33:40.451Z,3700.00
2019-04-19T10:34:34.447Z,3684.00
2019-04-19T10:35:33.660Z,3700.00
2019-04-19T10:36:33.444Z,3676.00
2019-04-19T10:37:33.683Z,3692.00
2019-04-19T10:38:33.900Z,3720.00
2019-04-19T10:39:34.033Z,3656.00
2019-04-19T10:40:33.601Z,3636.00
2019-04-19T10:41:34.219Z,3632.00
2019-04-19T10:42:33.641Z,3644.00
2019-04-19T10:43:34.862Z,3664.00
2019-04-19T10:44:34.083Z,3620.00
2019-04-19T10:45:34.198Z,3644.00
2019-04-19T10:46:34.139Z,3648.00
2019-04-19T10:47:33.688Z,3628.00
2019-04-19T10:48:34.710Z,3628.00
2019-04-19T10:49:43.040Z,3640.00
2019-04-19T10:50:41.898Z,3628.00
2019-04-19T10:51:33.674Z,3620.00
2019-04-19T10:52:33.700Z,3680.00
2019-04-19T10:53:34.604Z,3608.00
2019-04-19T10:54:33.719Z,3584.00
2019-04-19T10:55:34.142Z,3604.00
2019-04-19T10:56:34.261Z,3580.00
2019-04-19T10:57:33.763Z,3612.00
2019-04-19T10:58:34.490Z,3604.00
2019-04-19T10:59:34.407Z,3568.00
2019-04-19T11:00:33.807Z,3576.00
2019-04-19T11:01:33.819Z,3600.00
2019-04-19T11:02:34.554Z,3576.00
2019-04-19T11:03:34.814Z,3576.00
2019-04-19T11:04:35.067Z,3596.00
2019-04-19T11:05:34.517Z,3624.00
2019-04-19T11:06:33.905Z,3608.00
2019-04-19T11:07:34.956Z,3620.00
2019-04-19T11:08:33.939Z,3612.00
2019-04-19T11:09:35.382Z,3616.00
2019-04-19T11:10:33.966Z,3564.00
2019-04-19T11:11:33.990Z,3636.00
2019-04-19T11:12:34.377Z,3648.00
2019-04-19T11:13:34.013Z,3648.00
2019-04-19T11:14:34.412Z,3584.00
2019-04-19T11:15:34.160Z,3628.00
2019-04-19T11:16:35.292Z,3632.00
2019-04-19T11:17:34.078Z,3632.00
2019-04-19T11:18:35.247Z,3636.00
2019-04-19T11:19:50.732Z,3648.00
2019-04-19T11:20:42.128Z,3612.00
2019-04-19T11:21:34.142Z,3612.00
2019-04-19T11:22:35.406Z,3624.00
2019-04-19T11:23:34.176Z,3628.00
2019-04-19T11:24:34.186Z,3628.00
2019-04-19T11:25:34.210Z,3648.00
2019-04-19T11:26:34.858Z,3672.00
2019-04-19T11:27:35.247Z,3660.00
2019-04-19T11:28:34.384Z,3672.00
2019-04-19T11:29:34.571Z,3688.00
2019-04-19T11:30:35.073Z,3676.00
2019-04-19T11:31:34.304Z,3668.00
2019-04-19T11:32:34.316Z,3680.00
2019-04-19T11:33:34.950Z,3676.00
2019-04-19T11:34:35.429Z,3660.00
2019-04-19T11:35:35.238Z,3668.00
2019-04-19T11:36:35.553Z,3676.00
2019-04-19T11:37:34.981Z,3660.00
2019-04-19T11:38:34.441Z,3652.00
2019-04-19T11:39:35.021Z,3684.00
2019-04-19T11:40:35.333Z,3684.00
2019-04-19T11:41:34.945Z,3696.00
2019-04-19T11:42:35.177Z,3720.00
2019-04-19T11:43:35.665Z,3712.00
2019-04-19T11:44:34.536Z,3720.00
2019-04-19T11:45:35.657Z,3724.00
2019-04-19T11:46:34.545Z,3740.00
2019-04-19T11:47:35.283Z,3780.00
2019-04-19T11:48:34.906Z,3756.00
2019-04-19T11:49:38.736Z,3764.00
2019-04-19T11:50:35.779Z,3776.00
2019-04-19T11:51:34.627Z,3768.00
2019-04-19T11:52:35.634Z,3780.00
2019-04-19T11:53:34.657Z,3800.00
2019-04-19T11:54:34.683Z,3808.00
2019-04-19T11:55:34.697Z,3816.00
2019-04-19T11:56:45.541Z,3820.00
2019-04-19T11:57:34.722Z,3836.00
2019-04-19T11:58:35.891Z,3840.00
2019-04-19T11:59:42.474Z,3856.00
2019-04-19T12:00:35.844Z,3880.00
2019-04-19T12:01:34.793Z,3888.00
2019-04-19T12:02:35.880Z,3888.00
2019-04-19T12:03:38.270Z,3896.00
2019-04-19T12:04:34.839Z,3904.00
2019-04-19T12:05:35.932Z,3936.00
2019-04-19T12:06:34.871Z,3944.00
2019-04-19T12:07:34.912Z,3964.00
2019-04-19T12:08:36.188Z,3984.00
2019-04-19T12:09:34.925Z,3992.00
2019-04-19T12:10:35.919Z,4004.00
2019-04-19T12:11:36.122Z,4016.00
2019-04-19T12:12:35.136Z,3992.00
2019-04-19T12:13:37.544Z,4020.00
2019-04-19T12:14:35.015Z,4044.00
2019-04-19T12:15:35.885Z,4068.00
2019-04-19T12:16:35.098Z,4092.00
2019-04-19T12:17:35.523Z,4124.00
2019-04-19T12:18:38.313Z,4188.00
2019-04-19T12:19:43.444Z,4480.00
2019-04-19T12:20:35.329Z,4584.00
2019-04-19T12:21:35.119Z,4228.00
2019-04-19T12:22:35.719Z,5036.00
2019-04-19T12:23:35.152Z,7020.00
2019-04-19T12:24:36.087Z,7788.00
2019-04-19T12:25:35.606Z,7260.00
2019-04-19T12:26:35.631Z,6240.00
2019-04-19T12:27:35.941Z,5168.00
2019-04-19T12:28:35.543Z,4508.00
2019-04-19T12:29:41.696Z,4408.00
2019-04-19T12:30:38.406Z,4388.00
2019-04-19T12:31:35.286Z,4416.00
2019-04-19T12:32:35.319Z,4448.00
2019-04-19T12:33:35.445Z,4488.00
2019-04-19T12:34:35.362Z,4516.00
2019-04-19T12:35:35.349Z,4540.00
2019-04-19T12:36:35.367Z,4596.00
2019-04-19T12:37:35.498Z,4648.00
2019-04-19T12:38:35.851Z,4660.00
2019-04-19T12:39:36.864Z,4704.00
2019-04-19T12:40:35.974Z,4672.00
2019-04-19T12:41:35.458Z,4620.00
2019-04-19T12:42:35.926Z,4568.00
2019-04-19T12:43:36.138Z,4456.00
2019-04-19T12:44:38.920Z,4496.00
2019-04-19T12:45:35.765Z,4456.00
2019-04-19T12:46:35.540Z,4464.00
2019-04-19T12:47:35.559Z,4460.00
2019-04-19T12:48:35.576Z,4484.00
2019-04-19T12:49:48.693Z,4484.00
2019-04-19T12:50:37.719Z,4508.00
2019-04-19T12:51:36.428Z,4512.00
2019-04-19T12:52:35.874Z,4516.00
2019-04-19T12:53:36.942Z,4504.00
2019-04-19T12:54:36.229Z,4496.00
2019-04-19T12:55:35.839Z,4472.00
2019-04-19T12:56:36.031Z,4500.00
2019-04-19T12:57:36.162Z,4540.00
2019-04-19T12:58:35.879Z,4552.00
2019-04-19T12:59:36.024Z,4568.00
2019-04-19T13:00:36.168Z,4572.00
2019-04-19T13:01:35.808Z,4624.00
2019-04-19T13:02:35.833Z,4636.00
2019-04-19T13:03:36.085Z,4688.00
2019-04-19T13:04:36.250Z,4728.00
2019-04-19T13:05:35.880Z,4788.00
2019-04-19T13:06:35.900Z,4868.00
2019-04-19T13:07:36.441Z,4944.00
2019-04-19T13:08:36.961Z,5008.00
2019-04-19T13:09:37.197Z,5072.00
2019-04-19T13:10:35.955Z,5120.00
2019-04-19T13:11:36.831Z,5196.00
2019-04-19T13:12:37.195Z,5236.00